Time;durP1;ratioP1;P1;durP2;ratioP2;P2;SDS_P1;SDS_P2;PMS_P1;PMS_P2;Temp;Humidity;BMP_temperature;BMP_pressure;BME280_temperature;BME280_humidity;BME280_pressure;Samples;Min_cycle;Max_cycle;Signal;HPM_P1;HPM_P2
2022/07/29 00:00:00;;;;;;;;;;;20.90;37.20;;;18.81;40.76;101562.13;12261489;19;19923;-90
2022/07/29 00:04:01;;;;;;;;;;;20.80;37.30;;;18.68;40.63;101553.41;12266879;19;19922;-90
2022/07/29 00:08:03;;;;;;;;;;;20.80;37.30;;;18.74;40.95;101569.69;12268983;19;19911;-91
2022/07/29 00:12:06;;;;;;;;;;;20.80;37.30;;;18.44;40.82;101513.78;12261822;19;19914;-89
2022/07/29 00:16:07;;;;;;;;;;;20.70;37.40;;;18.78;40.89;101573.78;12258652;19;20401;-91
2022/07/29 00:20:09;;;;;;;;;;;20.80;37.40;;;18.73;40.71;101559.19;12259339;19;19907;-89
2022/07/29 00:24:11;;;;;;;;;;;20.70;37.90;;;18.37;40.74;101510.75;12258739;19;20381;-90
2022/07/29 00:28:13;;;;;;;;;;;20.70;37.60;;;18.42;40.71;101519.19;12265119;19;19907;-91
2022/07/29 00:32:14;;;;;;;;;;;20.80;37.60;;;18.62;40.96;101551.22;12258398;19;19918;-89
2022/07/29 00:36:16;;;;;;;;;;;20.60;37.40;;;18.60;40.86;101563.72;12266560;19;19911;-90
2022/07/29 00:40:17;;;;;;;;;;;20.60;37.50;;;18.49;41.04;101548.66;12266803;19;19927;-89
2022/07/29 00:44:19;;;;;;;;;;;20.70;37.70;;;18.51;40.98;101562.63;12260178;19;19919;-89
2022/07/29 00:48:21;;;;;;;;;;;20.50;37.70;;;18.41;41.26;101536.00;12269506;19;19922;-89
2022/07/29 00:52:22;;;;;;;;;;;20.70;37.70;;;18.51;41.18;101552.88;12269868;19;19911;-90
2022/07/29 00:56:24;;;;;;;;;;;20.50;37.70;;;18.38;41.17;101538.06;12266627;19;19934;-90
2022/07/29 01:00:27;;;;;;;;;;;20.50;37.80;;;18.40;41.32;101541.44;12261536;19;19915;-90
2022/07/29 01:04:30;;;;;;;;;;;20.40;37.80;;;18.31;41.02;101533.22;12260645;19;19922;-89
2022/07/29 01:08:32;;;;;;;;;;;20.70;37.90;;;18.27;41.26;101523.81;12262852;19;19914;-90
2022/07/29 01:12:35;;;;;;;;;;;20.40;37.80;;;17.70;41.26;101446.09;12260970;19;19925;-89
2022/07/29 01:16:48;;;;;;;;;;;20.60;37.90;;;18.24;41.49;101544.38;12255294;19;19921;-91
2022/07/29 01:21:27;;;;;;;;;;;20.30;37.80;;;18.23;41.44;101540.06;12261896;19;19923;-90
2022/07/29 01:25:50;;;;;;;;;;;20.30;37.90;;;18.19;41.62;101525.38;12259104;19;19928;-90
2022/07/29 01:29:58;;;;;;;;;;;20.20;37.90;;;18.02;41.53;101506.31;12258628;19;19911;-91
2022/07/29 01:34:03;;;;;;;;;;;20.10;38.00;;;18.08;41.42;101515.59;12253990;19;19915;-90
2022/07/29 01:38:21;;;;;;;;;;;20.10;38.00;;;18.06;41.42;101512.22;12255494;19;19914;-91
2022/07/29 01:42:30;;;;;;;;;;;20.10;38.00;;;18.02;41.42;101511.59;12257608;19;19915;-90
2022/07/29 01:46:35;;;;;;;;;;;20.10;38.10;;;17.87;41.75;101483.66;12260803;19;19918;-90
2022/07/29 01:50:44;;;;;;;;;;;20.00;38.00;;;17.85;41.71;101475.84;12255200;19;19919;-89
2022/07/29 01:54:51;;;;;;;;;;;20.20;38.10;;;17.73;41.56;101454.75;12258068;19;19919;-90
2022/07/29 01:58:54;;;;;;;;;;;19.90;38.20;;;17.61;41.87;101443.28;12259395;19;20326;-90
2022/07/29 02:02:55;;;;;;;;;;;19.80;38.10;;;17.56;41.72;101442.78;12257642;19;20298;-90
2022/07/29 02:07:10;;;;;;;;;;;20.00;38.30;;;17.61;41.80;101454.69;12262279;19;19934;-89
2022/07/29 02:11:11;;;;;;;;;;;19.80;38.20;;;17.32;42.02;101398.72;12255813;19;19926;-90
2022/07/29 02:15:14;;;;;;;;;;;19.60;38.00;;;17.65;41.85;101457.94;12266329;19;19911;-90
2022/07/29 02:19:18;;;;;;;;;;;19.60;38.20;;;17.55;42.05;101436.66;12257405;19;19927;-90
2022/07/29 02:23:22;;;;;;;;;;;20.00;38.40;;;17.49;41.97;101421.25;12257658;19;20276;-90
2022/07/29 02:27:27;;;;;;;;;;;19.70;38.30;;;17.54;41.92;101442.03;12256141;19;20321;-90
2022/07/29 02:31:32;;;;;;;;;;;19.60;38.40;;;17.17;42.10;101382.19;12265510;19;19929;-89
2022/07/29 02:35:34;;;;;;;;;;;19.70;38.30;;;17.52;42.10;101442.13;12253897;19;19986;-91
2022/07/29 02:39:37;;;;;;;;;;;19.70;38.40;;;17.67;42.02;101462.16;12254196;19;19910;-90
2022/07/29 02:43:40;;;;;;;;;;;19.60;38.50;;;17.62;42.36;101466.09;12258305;19;19922;-90
2022/07/29 02:47:45;;;;;;;;;;;19.90;38.50;;;17.68;41.96;101469.13;12251029;19;19997;-91
2022/07/29 02:52:02;;;;;;;;;;;19.70;38.50;;;17.57;42.24;101447.94;12251649;19;19915;-91
2022/07/29 02:56:07;;;;;;;;;;;19.70;38.60;;;17.61;42.40;101459.97;12255880;19;19919;-90
2022/07/29 03:00:10;;;;;;;;;;;19.70;38.50;;;17.66;42.31;101462.25;12253143;19;19911;-90
2022/07/29 03:04:12;;;;;;;;;;;19.70;38.60;;;17.60;42.27;101462.72;12251129;19;19971;-90
2022/07/29 03:08:14;;;;;;;;;;;19.60;38.50;;;17.54;42.34;101445.53;12255772;19;19918;-91
2022/07/29 03:12:16;;;;;;;;;;;19.70;38.60;;;17.67;42.37;101467.44;12249465;19;20334;-91
2022/07/29 03:16:19;;;;;;;;;;;19.80;38.60;;;17.68;42.38;101470.91;12256798;19;20356;-91
2022/07/29 03:20:21;;;;;;;;;;;19.70;38.60;;;17.69;42.37;101477.91;12249788;19;19978;-91
2022/07/29 03:24:34;;;;;;;;;;;19.70;38.60;;;17.60;42.42;101460.91;12250920;19;19919;-90
2022/07/29 03:28:36;;;;;;;;;;;19.70;38.60;;;17.59;42.36;101456.59;12256120;19;19950;-89
2022/07/29 03:32:37;;;;;;;;;;;19.60;38.70;;;17.60;42.51;101462.72;12257462;19;19936;-90
2022/07/29 03:36:39;;;;;;;;;;;19.60;38.60;;;17.47;42.65;101445.13;12250452;19;19922;-91
2022/07/29 03:40:46;;;;;;;;;;;19.60;38.60;;;17.42;42.44;101442.00;12258316;19;20271;-91
2022/07/29 03:44:49;;;;;;;;;;;19.60;39.00;;;17.04;42.54;101381.41;12256630;19;20349;-89
2022/07/29 03:48:56;;;;;;;;;;;19.50;38.70;;;17.49;42.77;101463.50;12258865;19;19915;-90
2022/07/29 03:52:59;;;;;;;;;;;19.70;38.80;;;17.44;42.84;101447.13;12255094;19;19922;-90
2022/07/29 03:57:01;;;;;;;;;;;19.40;38.90;;;17.47;42.74;101441.63;12262741;19;20326;-90
2022/07/29 04:01:03;;;;;;;;;;;19.50;39.00;;;17.15;42.49;101392.03;12250138;19;19947;-89
2022/07/29 04:05:05;;;;;;;;;;;19.50;38.90;;;17.28;42.70;101394.59;12262099;19;19911;-89
2022/07/29 04:09:07;;;;;;;;;;;19.50;38.90;;;17.55;42.90;101435.78;12260298;19;19933;-91
2022/07/29 04:13:09;;;;;;;;;;;19.60;38.90;;;17.06;42.55;101347.81;12254949;19;19917;-90
2022/07/29 04:17:10;;;;;;;;;;;19.60;39.00;;;17.73;42.60;101441.53;12247093;19;19932;-91
2022/07/29 04:21:12;;;;;;;;;;;19.60;38.90;;;17.73;42.72;101449.47;12246488;19;19926;-91
2022/07/29 04:25:13;;;;;;;;;;;19.70;39.00;;;17.87;42.74;101458.06;12246410;19;19931;-91
2022/07/29 04:29:15;;;;;;;;;;;19.80;39.00;;;17.80;42.85;101445.44;12249049;19;19911;-91
2022/07/29 04:33:16;;;;;;;;;;;19.80;39.10;;;17.40;42.86;101379.69;12244571;19;20365;-90
2022/07/29 04:37:18;;;;;;;;;;;19.80;38.90;;;17.50;42.93;101385.97;12249157;19;20357;-91
2022/07/29 04:41:19;;;;;;;;;;;20.20;39.10;;;17.64;42.73;101408.72;12238779;19;19935;-91
2022/07/29 04:45:21;;;;;;;;;;;19.90;39.20;;;17.97;42.90;101452.94;12254446;19;19938;-91
2022/07/29 04:49:23;;;;;;;;;;;19.90;39.10;;;17.98;42.80;101451.16;12254517;19;19926;-91
2022/07/29 04:53:25;;;;;;;;;;;19.90;39.20;;;18.09;42.78;101459.97;12254071;19;20426;-90
2022/07/29 04:57:26;;;;;;;;;;;20.00;39.20;;;18.09;43.04;101448.53;12253268;19;19939;-90
2022/07/29 05:01:28;;;;;;;;;;;20.10;39.20;;;18.17;42.75;101459.38;12251524;19;19922;-90
2022/07/29 05:05:30;;;;;;;;;;;20.10;39.10;;;18.13;42.82;101445.56;12254503;19;19915;-90
2022/07/29 05:09:32;;;;;;;;;;;20.50;39.00;;;18.18;42.97;101449.66;12256661;19;19918;-90
2022/07/29 05:13:33;;;;;;;;;;;20.50;39.20;;;18.29;43.13;101462.91;12252682;19;19915;-90
2022/07/29 05:17:35;;;;;;;;;;;20.20;39.20;;;18.32;42.95;101465.31;12255698;19;19982;-90
2022/07/29 05:21:36;;;;;;;;;;;20.30;39.20;;;18.31;43.12;101448.63;12252183;19;19954;-90
2022/07/29 05:25:38;;;;;;;;;;;20.30;39.10;;;18.43;42.95;101465.34;12252257;19;19918;-90
2022/07/29 05:29:40;;;;;;;;;;;20.30;39.10;;;18.46;43.11;101457.16;12252428;19;19911;-89
2022/07/29 05:33:42;;;;;;;;;;;20.60;39.10;;;18.56;43.17;101462.59;12248537;19;19986;-90
2022/07/29 05:37:43;;;;;;;;;;;20.40;39.10;;;18.55;43.12;101456.47;12251523;19;19907;-91
2022/07/29 05:41:44;;;;;;;;;;;20.50;39.30;;;18.40;43.05;101415.31;12246043;19;19982;-91
2022/07/29 05:45:46;;;;;;;;;;;20.50;39.20;;;18.44;43.15;101424.69;12247105;19;19911;-90
2022/07/29 05:49:48;;;;;;;;;;;20.50;39.40;;;18.70;43.30;101461.53;12250332;19;19954;-90
2022/07/29 05:53:49;;;;;;;;;;;20.60;39.10;;;18.54;43.02;101430.97;12246016;19;20611;-91
2022/07/29 05:57:52;;;;;;;;;;;20.70;39.20;;;18.65;43.18;101446.00;12258209;19;19936;-93
2022/07/29 06:01:54;;;;;;;;;;;20.60;39.20;;;18.64;43.27;101431.09;12249566;19;19933;-90
2022/07/29 06:05:55;;;;;;;;;;;20.60;39.40;;;18.40;43.15;101391.53;12251871;19;19922;-92
2022/07/29 06:09:56;;;;;;;;;;;20.70;39.30;;;18.77;43.15;101447.72;12255617;19;19954;-91
2022/07/29 06:13:58;;;;;;;;;;;20.70;39.40;;;18.33;43.15;101363.84;12248411;19;19919;-91
2022/07/29 06:18:00;;;;;;;;;;;20.80;39.70;;;18.39;43.36;101371.34;12261271;19;19922;-92
2022/07/29 06:22:01;;;;;;;;;;;20.80;39.50;;;19.01;43.17;101442.31;12258859;19;20353;-91
2022/07/29 06:26:03;;;;;;;;;;;20.90;39.50;;;18.83;43.19;101385.53;12256663;19;19922;-91
2022/07/29 06:30:06;;;;;;;;;;;21.00;39.60;;;18.89;43.35;101382.41;12261379;19;19914;-91
2022/07/29 06:34:09;;;;;;;;;;;21.10;39.60;;;18.96;43.34;101373.00;12256818;19;19923;-90
2022/07/29 06:38:12;;;;;;;;;;;21.20;39.60;;;19.19;43.28;101399.44;12266060;19;19914;-91
2022/07/29 06:42:13;;;;;;;;;;;21.30;39.60;;;19.41;43.22;101423.19;12263121;19;19926;-90
2022/07/29 06:46:19;;;;;;;;;;;21.40;39.60;;;19.69;43.23;101444.84;12256596;19;20341;-91
2022/07/29 06:50:21;;;;;;;;;;;21.40;39.50;;;19.54;43.17;101403.66;12257962;19;20333;-91
2022/07/29 06:54:23;;;;;;;;;;;21.50;39.50;;;19.71;43.00;101426.97;12256512;19;19919;-91
2022/07/29 06:58:27;;;;;;;;;;;21.70;39.30;;;20.06;42.94;101468.28;12260379;19;19915;-91
2022/07/29 07:02:31;;;;;;;;;;;21.80;39.40;;;19.91;43.05;101413.91;12265152;19;19910;-91
2022/07/29 07:06:34;;;;;;;;;;;21.90;39.40;;;20.23;43.18;101454.44;12269953;19;20305;-90
2022/07/29 07:10:35;;;;;;;;;;;22.10;39.20;;;20.29;43.03;101447.78;12269984;19;19918;-92
2022/07/29 07:14:37;;;;;;;;;;;22.10;39.30;;;20.10;43.07;101412.22;12262260;19;19960;-90
2022/07/29 07:18:38;;;;;;;;;;;22.40;39.30;;;20.10;43.11;101398.13;12262247;19;19950;-92
2022/07/29 07:22:40;;;;;;;;;;;22.20;39.20;;;20.47;43.00;101437.44;12268600;19;19927;-91
2022/07/29 07:26:42;;;;;;;;;;;22.40;39.30;;;20.35;42.92;101394.19;12270127;19;19911;-91
2022/07/29 07:30:44;;;;;;;;;;;22.80;39.50;;;20.63;43.03;101408.63;12267103;19;20349;-90
2022/07/29 07:34:46;;;;;;;;;;;22.60;39.20;;;21.08;42.99;101466.63;12263043;19;19919;-91
2022/07/29 07:38:48;;;;;;;;;;;22.70;39.30;;;21.26;43.08;101466.81;12260211;19;19914;-90
2022/07/29 07:42:49;;;;;;;;;;;22.90;39.30;;;21.51;43.12;101464.66;12251531;19;19936;-92
2022/07/29 07:46:51;;;;;;;;;;;23.00;39.40;;;21.78;42.89;101469.28;12244964;19;19922;-91
2022/07/29 07:50:52;;;;;;;;;;;23.20;39.40;;;22.08;43.15;101466.47;12245932;19;20413;-90
2022/07/29 07:54:54;;;;;;;;;;;23.50;39.30;;;22.25;42.94;101456.13;12249753;19;19915;-91
2022/07/29 07:58:56;;;;;;;;;;;23.80;39.10;;;22.06;42.47;101383.34;12242370;19;19914;-91
2022/07/29 08:02:57;;;;;;;;;;;24.00;39.00;;;22.34;42.49;101388.75;12244112;19;20395;-93
2022/07/29 08:06:59;;;;;;;;;;;24.50;38.90;;;22.86;42.29;101423.69;12253733;19;19923;-90
2022/07/29 08:11:03;;;;;;;;;;;24.40;38.90;;;22.85;42.43;101384.75;12264609;19;19930;-91
2022/07/29 08:15:07;;;;;;;;;;;24.70;39.00;;;23.17;42.37;101391.47;12264071;19;19929;-90
2022/07/29 08:19:09;;;;;;;;;;;24.90;38.90;;;23.59;42.22;101441.50;12264983;19;20000;-90
2022/07/29 08:23:10;;;;;;;;;;;25.20;38.70;;;23.62;42.33;101411.88;12260524;19;20337;-92
2022/07/29 08:27:13;;;;;;;;;;;25.40;38.80;;;23.72;42.11;101410.00;12262023;19;19935;-91
2022/07/29 08:31:15;;;;;;;;;;;25.50;38.50;;;23.84;42.02;101395.44;12267355;19;19915;-91
2022/07/29 08:35:17;;;;;;;;;;;25.70;38.50;;;24.06;41.78;101391.41;12273965;19;20201;-92
2022/07/29 08:39:18;;;;;;;;;;;25.90;38.50;;;24.66;41.74;101449.38;12272177;19;20325;-92
2022/07/29 08:43:20;;;;;;;;;;;26.10;38.40;;;24.62;41.66;101413.28;12270418;19;19930;-92
2022/07/29 08:47:21;;;;;;;;;;;26.10;37.60;;;24.90;41.70;101418.41;12274443;19;19915;-92
2022/07/29 08:51:25;;;;;;;;;;;26.50;37.90;;;25.24;41.53;101444.25;12261057;19;20341;-91
2022/07/29 08:55:27;;;;;;;;;;;26.60;37.90;;;25.33;41.35;101416.53;12257484;19;19922;-91
2022/07/29 08:59:30;;;;;;;;;;;26.80;37.90;;;25.51;41.18;101435.94;12261024;19;19919;-91
2022/07/29 09:03:34;;;;;;;;;;;27.20;37.90;;;25.35;41.33;101385.13;12266594;19;19915;-92
2022/07/29 09:07:36;;;;;;;;;;;27.20;37.90;;;25.38;40.94;101371.41;12270618;19;19922;-92
2022/07/29 09:11:39;;;;;;;;;;;27.30;38.00;;;25.77;41.13;101425.09;12270391;19;19934;-92
2022/07/29 09:15:40;;;;;;;;;;;27.40;38.00;;;25.49;40.96;101367.56;12269113;19;19919;-91
2022/07/29 09:19:45;;;;;;;;;;;27.50;37.60;;;25.84;41.00;101419.94;12267269;19;20262;-92
2022/07/29 09:24:07;;;;;;;;;;;27.50;37.60;;;25.92;41.01;101438.66;12264523;19;19938;-92
2022/07/29 09:28:13;;;;;;;;;;;27.60;37.50;;;25.82;40.67;101400.53;12267839;19;19926;-91
2022/07/29 09:32:15;;;;;;;;;;;27.60;37.20;;;25.95;40.80;101410.75;12269765;19;19933;-91
2022/07/29 09:36:17;;;;;;;;;;;27.70;36.90;;;25.87;40.34;101403.56;12268747;19;19923;-91
2022/07/29 09:40:23;;;;;;;;;;;27.60;37.30;;;25.91;40.17;101394.19;12266229;19;19918;-92
2022/07/29 09:44:25;;;;;;;;;;;27.70;37.10;;;25.71;40.56;101340.16;12260231;19;20258;-91
2022/07/29 09:48:27;;;;;;;;;;;27.80;37.00;;;25.91;40.69;101351.38;12268264;19;19922;-92
2022/07/29 09:52:29;;;;;;;;;;;27.60;36.60;;;26.43;39.96;101387.53;12266055;19;20244;-91
2022/07/29 09:56:39;;;;;;;;;;;28.00;37.40;;;26.42;40.13;101376.00;12260011;19;19966;-92
2022/07/29 10:00:45;;;;;;;;;;;28.10;37.10;;;26.86;40.10;101421.06;12263003;19;19918;-91
2022/07/29 10:04:46;;;;;;;;;;;28.30;36.90;;;26.66;40.17;101344.78;12263259;19;19922;-92
2022/07/29 10:08:49;;;;;;;;;;;28.50;36.60;;;26.89;39.67;101340.28;12251440;19;19940;-93
2022/07/29 10:13:02;;;;;;;;;;;28.70;37.40;;;27.06;39.56;101340.22;12248224;19;20356;-93
2022/07/29 10:17:05;;;;;;;;;;;29.10;36.20;;;27.12;39.51;101339.50;12249339;19;20558;-93
2022/07/29 10:21:09;;;;;;;;;;;28.90;35.50;;;27.12;39.24;101318.03;12248420;19;19922;-93
2022/07/29 10:25:10;;;;;;;;;;;29.10;36.40;;;27.41;39.10;101332.59;12255941;19;20357;-92
2022/07/29 10:29:12;;;;;;;;;;;29.20;36.40;;;27.68;39.11;101355.31;12257333;19;19939;-92
2022/07/29 10:33:43;;;;;;;;;;;29.30;35.20;;;28.06;38.56;101409.88;12252778;19;19919;-91
2022/07/29 10:38:10;;;;;;;;;;;29.50;34.70;;;28.15;38.84;101394.50;12257714;19;19983;-93
2022/07/29 10:42:23;;;;;;;;;;;29.60;35.10;;;28.19;38.53;101396.66;12252060;19;19915;-92
2022/07/29 10:46:26;;;;;;;;;;;29.70;35.30;;;28.14;38.42;101366.81;12258064;19;19923;-92
2022/07/29 10:50:48;;;;;;;;;;;29.80;36.00;;;28.35;38.53;101384.88;12260452;19;19919;-92
2022/07/29 10:54:53;;;;;;;;;;;29.80;35.70;;;28.26;38.49;101352.94;12261286;19;19911;-91
2022/07/29 10:59:19;;;;;;;;;;;29.90;35.50;;;28.41;38.39;101372.56;12247689;19;19936;-91
2022/07/29 11:03:44;;;;;;;;;;;30.00;35.80;;;28.50;38.52;101371.47;12245912;19;19915;-90
2022/07/29 11:08:19;;;;;;;;;;;30.00;36.00;;;28.63;38.49;101371.63;12250099;19;19919;-90
2022/07/29 11:12:36;;;;;;;;;;;30.10;35.80;;;28.76;38.32;101375.50;12251428;19;19939;-89
2022/07/29 11:17:02;;;;;;;;;;;30.20;36.00;;;28.80;38.16;101382.16;12251344;19;19923;-91
2022/07/29 11:21:03;;;;;;;;;;;30.30;35.20;;;28.81;38.17;101362.31;12248542;19;20692;-91
2022/07/29 11:25:15;;;;;;;;;;;30.40;35.80;;;28.96;38.17;101370.34;12249480;19;19911;-90
2022/07/29 11:29:25;;;;;;;;;;;30.40;35.40;;;29.00;37.98;101345.59;12249916;19;19921;-90
2022/07/29 11:33:28;;;;;;;;;;;30.50;36.10;;;28.88;38.02;101298.69;12245958;19;19923;-91
2022/07/29 11:37:29;;;;;;;;;;;30.70;36.20;;;29.09;37.90;101327.50;12249680;19;19934;-92
2022/07/29 11:41:35;;;;;;;;;;;30.80;35.60;;;29.03;37.46;101314.75;12242547;19;20042;-91
2022/07/29 11:45:40;;;;;;;;;;;30.80;35.20;;;29.28;37.75;101350.22;12242049;19;19915;-91
2022/07/29 11:49:44;;;;;;;;;;;30.80;35.70;;;29.32;37.60;101351.50;12245144;19;19931;-90
2022/07/29 11:53:48;;;;;;;;;;;30.80;35.60;;;29.48;37.58;101337.75;12241763;19;19934;-91
2022/07/29 11:57:59;;;;;;;;;;;30.90;35.70;;;29.26;37.66;101277.78;12247956;19;20274;-91
2022/07/29 12:02:01;;;;;;;;;;;31.10;36.10;;;29.73;37.01;101337.38;12240814;19;20400;-90
2022/07/29 12:06:12;;;;;;;;;;;31.20;35.80;;;29.79;37.07;101331.22;12242838;19;19915;-90
2022/07/29 12:10:13;;;;;;;;;;;31.20;35.90;;;29.94;37.00;101329.22;12244607;19;19942;-89
2022/07/29 12:14:46;;;;;;;;;;;31.40;35.70;;;30.16;37.28;101340.78;12240904;19;19907;-90
2022/07/29 12:18:58;;;;;;;;;;;31.50;36.10;;;30.25;37.12;101338.78;12241962;19;20268;-90
2022/07/29 12:23:13;;;;;;;;;;;31.60;35.40;;;30.29;37.03;101331.09;12240277;19;19926;-89
2022/07/29 12:27:17;;;;;;;;;;;31.70;35.60;;;30.27;37.00;101308.91;12242946;19;19971;-90
2022/07/29 12:31:19;;;;;;;;;;;31.80;35.30;;;30.26;37.15;101294.59;12243037;19;19915;-89
2022/07/29 12:35:21;;;;;;;;;;;31.80;35.30;;;30.34;37.08;101304.38;12243694;19;19923;-87
2022/07/29 12:39:26;;;;;;;;;;;31.90;35.30;;;30.40;36.87;101306.28;12243614;19;19915;-85
2022/07/29 12:43:27;;;;;;;;;;;31.90;35.10;;;30.45;36.80;101311.88;12241812;19;19907;-87
2022/07/29 12:47:29;;;;;;;;;;;32.00;35.30;;;30.44;36.60;101307.53;12242826;19;19948;-86
2022/07/29 12:51:39;;;;;;;;;;;32.00;35.20;;;30.48;36.26;101314.19;12242249;19;20373;-89
2022/07/29 12:55:51;;;;;;;;;;;32.00;35.50;;;30.34;36.91;101283.66;12244970;19;19985;-90
2022/07/29 13:00:10;;;;;;;;;;;32.00;34.80;;;30.50;36.67;101292.44;12253126;19;19929;-88
2022/07/29 13:04:23;;;;;;;;;;;32.00;35.10;;;30.32;36.68;101263.31;12250921;19;19935;-90
2022/07/29 13:08:28;;;;;;;;;;;32.00;34.90;;;30.50;36.32;101290.56;12253598;19;19925;-88
2022/07/29 13:12:29;;;;;;;;;;;32.10;35.10;;;30.36;36.12;101264.59;12252179;19;19970;-88
2022/07/29 13:16:31;;;;;;;;;;;32.00;34.90;;;30.13;36.20;101248.72;12253916;19;20255;-89
2022/07/29 13:20:33;;;;;;;;;;;31.90;34.80;;;30.15;36.09;101265.53;12250144;19;19939;-89
2022/07/29 13:24:51;;;;;;;;;;;31.90;34.70;;;30.21;36.32;101275.47;12253018;19;19906;-90
2022/07/29 13:28:53;;;;;;;;;;;31.80;34.80;;;30.18;35.89;101252.47;12252425;19;19919;-90
2022/07/29 13:32:55;;;;;;;;;;;31.80;35.30;;;30.36;35.97;101259.22;12249717;19;19915;-90
2022/07/29 13:36:56;;;;;;;;;;;31.90;34.90;;;30.48;35.96;101245.97;12250651;19;20397;-90
2022/07/29 13:40:58;;;;;;;;;;;31.90;35.00;;;30.60;35.77;101263.22;12249381;19;19927;-90
2022/07/29 13:45:00;;;;;;;;;;;32.00;34.90;;;30.67;35.66;101269.44;12249351;19;20391;-88
2022/07/29 13:49:02;;;;;;;;;;;32.10;34.80;;;30.64;36.00;101245.59;12250680;19;20371;-88
2022/07/29 13:53:03;;;;;;;;;;;32.10;34.90;;;30.68;35.62;101238.75;12248312;19;19911;-90
2022/07/29 13:57:05;;;;;;;;;;;32.30;34.50;;;30.81;35.82;101255.00;12250259;19;20374;-88
2022/07/29 14:01:06;;;;;;;;;;;32.20;34.20;;;30.86;35.44;101247.09;12247509;19;19922;-88
2022/07/29 14:05:09;;;;;;;;;;;32.30;34.40;;;30.90;35.25;101238.63;12250096;19;19941;-89
2022/07/29 14:09:11;;;;;;;;;;;32.30;33.90;;;30.92;35.48;101231.97;12248120;19;19923;-90
2022/07/29 14:13:13;;;;;;;;;;;32.40;33.90;;;31.01;35.46;101255.00;12250781;19;19923;-87
2022/07/29 14:17:15;;;;;;;;;;;32.40;33.90;;;30.88;35.24;101237.97;12250734;19;19915;-88
2022/07/29 14:21:16;;;;;;;;;;;32.50;33.90;;;30.50;35.30;101195.38;12250825;19;20338;-88
2022/07/29 14:25:17;;;;;;;;;;;32.40;33.20;;;30.69;35.30;101235.00;12248335;19;20351;-88
2022/07/29 14:29:19;;;;;;;;;;;32.30;34.40;;;30.16;35.42;101164.78;12253789;19;19911;-89
2022/07/29 14:33:20;;;;;;;;;;;32.20;34.40;;;30.58;35.34;101222.97;12249688;19;20352;-90
2022/07/29 14:37:22;;;;;;;;;;;32.10;33.70;;;30.25;35.11;101155.53;12252154;19;19970;-90
2022/07/29 14:41:28;;;;;;;;;;;32.10;33.90;;;30.71;35.30;101214.06;12245539;19;21952;-89
2022/07/29 14:45:29;;;;;;;;;;;32.20;33.90;;;30.49;35.00;101167.59;12251010;19;19923;-90
2022/07/29 14:49:30;;;;;;;;;;;32.20;34.00;;;30.27;35.18;101120.28;12249442;19;19918;-90
2022/07/29 14:53:32;;;;;;;;;;;32.30;33.80;;;30.70;35.34;101166.56;12246684;19;19929;-89
2022/07/29 14:57:33;;;;;;;;;;;32.40;33.60;;;31.01;34.79;101184.84;12248050;19;19915;-88
2022/07/29 15:01:34;;;;;;;;;;;32.50;34.10;;;30.95;34.88;101160.59;12245898;19;19978;-88
2022/07/29 15:05:36;;;;;;;;;;;32.60;33.50;;;31.15;34.80;101179.44;12244877;19;19906;-89
2022/07/29 15:09:37;;;;;;;;;;;32.70;34.00;;;30.98;34.60;101154.78;12246490;19;19931;-89
2022/07/29 15:13:39;;;;;;;;;;;32.80;33.70;;;30.76;34.43;101136.09;12246931;19;19953;-87
2022/07/29 15:17:40;;;;;;;;;;;32.70;33.40;;;31.08;34.55;101203.72;12249983;19;19903;-88
2022/07/29 15:21:41;;;;;;;;;;;32.70;33.70;;;30.61;34.33;101146.25;12244273;19;20279;-88
2022/07/29 15:25:43;;;;;;;;;;;32.70;33.80;;;30.60;34.36;101163.47;12252179;19;19907;-88
2022/07/29 15:29:44;;;;;;;;;;;32.50;33.60;;;30.31;34.43;101125.06;12248533;19;19932;-86
2022/07/29 15:33:46;;;;;;;;;;;32.40;33.50;;;30.11;34.42;101106.16;12242023;19;19990;-88
2022/07/29 15:37:47;;;;;;;;;;;32.40;33.70;;;30.52;34.73;101177.16;12247898;19;19943;-89
2022/07/29 15:41:49;;;;;;;;;;;32.30;33.50;;;30.37;34.48;101150.34;12243667;19;20294;-87
2022/07/29 15:50:14;;;;;;;;;;;32.30;33.20;;;30.52;34.03;101160.97;12246772;19;19915;-88
2022/07/29 15:54:16;;;;;;;;;;;32.20;33.20;;;30.52;34.13;101155.56;12244610;19;19957;-87
2022/07/29 15:58:17;;;;;;;;;;;32.20;33.10;;;30.51;33.74;101159.28;12246616;19;19949;-89
2022/07/29 16:02:19;;;;;;;;;;;32.10;33.20;;;30.53;33.79;101163.44;12242264;19;19923;-88
2022/07/29 16:06:21;;;;;;;;;;;32.10;32.80;;;30.65;33.85;101188.78;12250239;19;19978;-87
2022/07/29 16:10:22;;;;;;;;;;;32.10;32.70;;;30.42;34.05;101154.09;12248665;19;20613;-88
2022/07/29 16:14:24;;;;;;;;;;;32.00;32.80;;;30.30;33.93;101136.88;12248620;19;19915;-89
2022/07/29 16:18:25;;;;;;;;;;;32.10;32.90;;;30.45;33.52;101144.78;12250025;19;19962;-88
2022/07/29 16:22:26;;;;;;;;;;;32.00;33.30;;;30.62;33.67;101172.16;12248338;19;19922;-88
2022/07/29 16:26:28;;;;;;;;;;;32.00;33.20;;;30.64;33.47;101165.53;12249627;19;19906;-88
2022/07/29 16:30:29;;;;;;;;;;;32.00;32.90;;;30.32;33.72;101112.41;12252225;19;19950;-88
2022/07/29 16:34:31;;;;;;;;;;;31.90;33.10;;;30.25;33.50;101098.13;12256221;19;19919;-88
2022/07/29 16:38:32;;;;;;;;;;;32.10;33.20;;;30.35;33.49;101123.63;12260645;19;19926;-87
2022/07/29 16:42:34;;;;;;;;;;;32.10;33.10;;;30.30;33.69;101115.34;12259356;19;19931;-88
2022/07/29 16:46:36;;;;;;;;;;;32.00;33.20;;;30.55;33.70;101153.28;12259941;19;19915;-90
2022/07/29 16:50:38;;;;;;;;;;;32.00;33.00;;;30.08;33.49;101101.16;12259970;19;19962;-89
2022/07/29 16:54:40;;;;;;;;;;;31.90;32.70;;;30.02;33.57;101095.75;12260019;19;19970;-89
2022/07/29 16:58:41;;;;;;;;;;;31.90;32.80;;;29.93;33.56;101097.81;12259447;19;19944;-88
2022/07/29 17:02:43;;;;;;;;;;;31.80;33.10;;;30.21;33.23;101140.75;12258299;19;19915;-89
2022/07/29 17:06:44;;;;;;;;;;;31.60;32.90;;;30.14;33.34;101145.31;12257780;19;20245;-87
2022/07/29 17:10:46;;;;;;;;;;;31.70;32.90;;;29.72;33.23;101090.69;12260028;19;20003;-88
2022/07/29 17:14:47;;;;;;;;;;;31.60;32.60;;;29.78;33.49;101112.25;12259763;19;19998;-87
2022/07/29 17:18:52;;;;;;;;;;;31.60;32.80;;;29.63;33.43;101094.59;12258185;19;19923;-87
2022/07/29 17:22:54;;;;;;;;;;;31.60;32.80;;;29.49;33.60;101081.06;12255965;19;19926;-87
2022/07/29 17:26:55;;;;;;;;;;;31.50;33.00;;;29.67;33.34;101115.53;12259597;19;19911;-89
2022/07/29 17:30:57;;;;;;;;;;;31.40;32.40;;;29.68;33.53;101132.53;12259907;19;20269;-87
2022/07/29 17:34:58;;;;;;;;;;;31.40;33.00;;;29.36;33.25;101094.47;12259398;19;19925;-89
2022/07/29 17:39:04;;;;;;;;;;;31.30;32.70;;;29.31;33.13;101095.06;12260760;19;19930;-88
2022/07/29 17:43:08;;;;;;;;;;;31.20;32.90;;;29.31;33.28;101123.81;12255040;19;19918;-88
2022/07/29 17:47:09;;;;;;;;;;;31.10;32.60;;;29.24;33.65;101121.09;12256593;19;19990;-89
2022/07/29 17:51:11;;;;;;;;;;;31.00;32.80;;;28.75;33.33;101059.31;12255852;19;19915;-88
2022/07/29 17:55:13;;;;;;;;;;;31.00;32.70;;;29.13;33.75;101134.25;12254265;19;19915;-90
2022/07/29 17:59:14;;;;;;;;;;;30.90;32.80;;;29.07;33.31;101152.84;12253310;19;19914;-89
2022/07/29 18:03:16;;;;;;;;;;;30.80;32.70;;;29.08;33.47;101159.06;12252668;19;19915;-87
2022/07/29 18:07:17;;;;;;;;;;;30.70;32.20;;;29.04;33.31;101160.50;12253470;19;20270;-88
2022/07/29 18:11:18;;;;;;;;;;;30.70;32.90;;;28.74;33.29;101135.63;12253651;19;19915;-86
2022/07/29 18:15:20;;;;;;;;;;;30.90;32.90;;;28.27;33.35;101067.97;12258237;19;19928;-88
2022/07/29 18:19:21;;;;;;;;;;;30.50;31.70;;;28.37;33.49;101103.41;12259199;19;19939;-90